Lorenzo, Illinois
Current Conditions -  °F | °C
As of 1:55 AM on Friday 24 Oct 2014 (Local Time) from KJOT Reporting Station
Overcast Overcast  
Wind Chill: 52°   Ceiling: 2600
Heat Index: 52°   Visibility: 10mi
Dew Point: 45°   Wind: 0mph
Humidity: 77%   Direction: NA
Pressure: 30.06"   Gusts: NA
Location:  41.3199°N, 88.0518°W
Report Text: KJOT 240655Z AUTO 00000KT 10SM OVC026 11/07 A3006 RMK AO2 T01120073
Loading
Personal Weather Stations






























Interactive Weather Map
Tropical Storm Tracking
New forecast layout! Learn more

10-Day Weather Forecast

Advertisements
Track Severe Weather on mobile